createdAt,value
2022-07-31T00:00:04.062Z,16
2022-07-31T00:01:03.817Z,19
2022-07-31T00:02:03.179Z,22
2022-07-31T00:03:03.639Z,19
2022-07-31T00:04:03.328Z,19
2022-07-31T00:05:03.693Z,19
2022-07-31T00:06:03.259Z,20
2022-07-31T00:07:03.855Z,20
2022-07-31T00:08:03.663Z,20
2022-07-31T00:09:03.481Z,20
2022-07-31T00:10:03.847Z,17
2022-07-31T00:11:03.514Z,22
2022-07-31T00:12:02.920Z,16
2022-07-31T00:13:03.304Z,19
2022-07-31T00:14:02.905Z,22
2022-07-31T00:15:03.196Z,23
2022-07-31T00:16:03.138Z,20
2022-07-31T00:17:04.280Z,21
2022-07-31T00:18:03.244Z,24
2022-07-31T00:19:03.334Z,18
2022-07-31T00:20:03.666Z,20
2022-07-31T00:21:03.907Z,13
2022-07-31T00:22:03.511Z,15
2022-07-31T00:23:03.881Z,17
2022-07-31T00:24:03.504Z,20
2022-07-31T00:25:03.820Z,21
2022-07-31T00:26:03.519Z,26
2022-07-31T00:27:03.301Z,25
2022-07-31T00:28:02.960Z,21
2022-07-31T00:29:02.684Z,21
2022-07-31T00:30:03.080Z,18
2022-07-31T00:31:02.745Z,23
2022-07-31T00:32:03.277Z,21
2022-07-31T00:33:02.885Z,19
2022-07-31T00:34:03.205Z,19
2022-07-31T00:35:02.895Z,17
2022-07-31T00:36:03.210Z,19
2022-07-31T00:37:03.859Z,24
2022-07-31T00:39:03.395Z,26
2022-07-31T00:40:03.712Z,23
2022-07-31T00:41:03.352Z,23
2022-07-31T00:42:04.015Z,23
2022-07-31T00:43:03.638Z,25
2022-07-31T00:44:03.957Z,25
2022-07-31T00:45:03.901Z,20
2022-07-31T00:46:03.724Z,15
2022-07-31T00:47:03.329Z,18
2022-07-31T00:48:03.367Z,20
2022-07-31T00:49:03.023Z,18
2022-07-31T00:50:02.948Z,17
2022-07-31T00:51:02.925Z,17
2022-07-31T00:52:03.396Z,21
2022-07-31T00:53:02.955Z,-127
2022-07-31T00:54:02.501Z,85
2022-07-31T00:55:02.533Z,-127
2022-07-31T00:56:02.663Z,-127
2022-07-31T00:57:03.697Z,-127
2022-07-31T00:58:03.633Z,-127
2022-07-31T00:59:03.306Z,-127
2022-07-31T01:00:03.276Z,-127
2022-07-31T01:01:03.653Z,-127
2022-07-31T01:02:02.463Z,-127
2022-07-31T01:03:03.017Z,25
2022-07-31T01:04:03.122Z,6
2022-07-31T01:05:02.755Z,14
2022-07-31T01:06:03.117Z,13
2022-07-31T01:07:03.765Z,12
2022-07-31T01:08:03.714Z,24
2022-07-31T01:09:03.321Z,20
2022-07-31T01:10:03.627Z,19
2022-07-31T01:11:03.335Z,19
2022-07-31T01:12:03.610Z,18
2022-07-31T01:13:03.820Z,18
2022-07-31T01:14:03.488Z,17
2022-07-31T01:15:03.871Z,23
2022-07-31T01:16:03.657Z,18
2022-07-31T01:17:03.969Z,16
2022-07-31T01:18:03.692Z,21
2022-07-31T01:19:04.158Z,20
2022-07-31T01:20:03.791Z,19
2022-07-31T01:21:03.772Z,18
2022-07-31T01:22:03.215Z,16
2022-07-31T01:23:02.928Z,21
2022-07-31T01:24:03.357Z,15
2022-07-31T01:25:03.055Z,18
2022-07-31T01:26:03.344Z,23
2022-07-31T01:27:03.946Z,20
2022-07-31T01:28:03.844Z,21
2022-07-31T01:29:03.843Z,18
2022-07-31T01:30:03.478Z,21
2022-07-31T01:31:25.376Z,22
2022-07-31T01:32:04.100Z,22
2022-07-31T01:33:03.712Z,19
2022-07-31T01:34:04.153Z,19
2022-07-31T01:35:04.055Z,20
2022-07-31T01:36:03.685Z,23
2022-07-31T01:37:03.632Z,11
2022-07-31T01:38:02.985Z,20
2022-07-31T01:39:03.294Z,18
2022-07-31T01:40:02.965Z,18
2022-07-31T01:41:03.226Z,20
2022-07-31T01:42:03.448Z,18
2022-07-31T01:43:03.597Z,19
2022-07-31T01:44:03.237Z,23
2022-07-31T01:45:03.621Z,18
2022-07-31T01:46:03.238Z,22
2022-07-31T01:47:04.667Z,16
2022-07-31T01:48:04.351Z,23
2022-07-31T01:49:03.844Z,24
2022-07-31T01:50:03.952Z,21
2022-07-31T01:51:03.877Z,22
2022-07-31T01:52:04.951Z,19
2022-07-31T01:53:03.549Z,23
2022-07-31T01:54:03.849Z,19
2022-07-31T01:55:03.461Z,20
2022-07-31T01:56:04.365Z,19
2022-07-31T01:57:03.628Z,21
2022-07-31T01:58:03.420Z,19
2022-07-31T01:59:03.101Z,19
2022-07-31T02:00:03.467Z,19
2022-07-31T02:01:03.826Z,19
2022-07-31T02:02:02.583Z,19
2022-07-31T02:03:09.754Z,20
2022-07-31T02:04:02.698Z,20
2022-07-31T02:05:02.385Z,20
2022-07-31T02:06:03.356Z,17
2022-07-31T02:07:02.873Z,18
2022-07-31T02:08:02.933Z,20
2022-07-31T02:09:03.362Z,23
2022-07-31T02:10:03.183Z,11
2022-07-31T02:11:03.491Z,9
2022-07-31T02:12:02.219Z,19
2022-07-31T02:13:02.169Z,15
2022-07-31T02:14:02.733Z,14
2022-07-31T02:15:02.248Z,11
2022-07-31T02:16:02.536Z,19
2022-07-31T02:17:02.921Z,19
2022-07-31T02:18:03.232Z,19
2022-07-31T02:19:02.864Z,18
2022-07-31T02:20:03.453Z,19
2022-07-31T02:21:03.150Z,19
2022-07-31T02:22:03.371Z,19
2022-07-31T02:23:03.203Z,18
2022-07-31T02:24:03.030Z,19
2022-07-31T02:25:03.299Z,19
2022-07-31T02:26:03.613Z,19
2022-07-31T02:27:02.391Z,19
2022-07-31T02:28:02.775Z,15
2022-07-31T02:29:02.403Z,17
2022-07-31T02:30:02.759Z,18
2022-07-31T02:31:02.416Z,19
2022-07-31T02:32:03.724Z,19
2022-07-31T02:33:03.338Z,19
2022-07-31T02:34:03.022Z,19
2022-07-31T02:35:02.826Z,19
2022-07-31T02:36:02.700Z,19
2022-07-31T02:37:03.279Z,8
2022-07-31T02:38:03.201Z,19
2022-07-31T02:39:03.783Z,19
2022-07-31T02:40:03.472Z,5
2022-07-31T02:41:03.824Z,19
2022-07-31T02:42:02.876Z,19
2022-07-31T02:43:02.522Z,19
2022-07-31T02:44:02.780Z,19
2022-07-31T02:45:02.814Z,19
2022-07-31T02:46:02.542Z,19
2022-07-31T02:47:02.740Z,19
2022-07-31T02:48:03.375Z,19
2022-07-31T02:49:03.068Z,7
2022-07-31T02:50:03.400Z,10
2022-07-31T02:51:02.941Z,85
2022-07-31T02:52:03.544Z,30
2022-07-31T02:53:03.273Z,14
2022-07-31T02:54:03.621Z,35
2022-07-31T02:55:03.211Z,20
2022-07-31T02:56:03.500Z,18
2022-07-31T02:57:03.207Z,24
2022-07-31T02:58:02.687Z,18
2022-07-31T02:59:03.265Z,18
2022-07-31T03:00:02.850Z,19
2022-07-31T03:01:03.009Z,19
2022-07-31T03:02:02.675Z,19
2022-07-31T03:03:02.332Z,15
2022-07-31T03:04:02.697Z,5
2022-07-31T03:05:02.356Z,14
2022-07-31T03:06:02.660Z,8
2022-07-31T03:07:02.960Z,18
2022-07-31T03:08:03.197Z,19
2022-07-31T03:09:02.787Z,19
2022-07-31T03:10:03.069Z,19
2022-07-31T03:11:03.405Z,7
2022-07-31T03:12:04.574Z,11
2022-07-31T03:13:03.397Z,20
2022-07-31T03:14:02.946Z,18
2022-07-31T03:15:03.295Z,19
2022-07-31T03:16:03.344Z,19
2022-07-31T03:17:02.540Z,19
2022-07-31T03:18:02.200Z,19
2022-07-31T03:19:02.748Z,19
2022-07-31T03:20:02.319Z,19
2022-07-31T03:21:02.672Z,19
2022-07-31T03:22:03.214Z,19
2022-07-31T03:23:03.069Z,19
2022-07-31T03:24:03.337Z,19
2022-07-31T03:25:03.026Z,19
2022-07-31T03:26:03.370Z,19
2022-07-31T03:27:02.711Z,19
2022-07-31T03:28:02.425Z,19
2022-07-31T03:29:02.811Z,19
2022-07-31T03:30:02.526Z,19
2022-07-31T03:31:02.430Z,19
2022-07-31T03:32:03.357Z,19
2022-07-31T03:33:02.959Z,19
2022-07-31T03:34:03.116Z,17
2022-07-31T03:35:02.948Z,19
2022-07-31T03:36:02.866Z,19
2022-07-31T03:37:03.231Z,19
2022-07-31T03:38:03.370Z,16
2022-07-31T03:39:03.035Z,22
2022-07-31T03:40:03.322Z,22
2022-07-31T03:41:02.951Z,22
2022-07-31T03:42:03.691Z,21
2022-07-31T03:43:03.498Z,21
2022-07-31T03:44:03.180Z,19
2022-07-31T03:45:03.421Z,19
2022-07-31T03:46:03.051Z,20
2022-07-31T03:47:03.388Z,21
2022-07-31T03:48:03.109Z,19
2022-07-31T03:49:03.412Z,19
2022-07-31T03:50:03.089Z,19
2022-07-31T03:51:03.632Z,19
2022-07-31T03:52:05.436Z,16
2022-07-31T03:53:02.955Z,20
2022-07-31T03:54:02.682Z,19
2022-07-31T03:55:03.075Z,19
2022-07-31T03:56:03.187Z,18
2022-07-31T03:57:03.133Z,19
2022-07-31T03:58:03.431Z,19
2022-07-31T03:59:03.405Z,19
2022-07-31T04:00:03.842Z,20
2022-07-31T04:01:03.235Z,18
2022-07-31T04:02:06.765Z,19
2022-07-31T04:03:03.094Z,19
2022-07-31T04:04:03.004Z,19
2022-07-31T04:05:05.744Z,19
2022-07-31T04:06:03.149Z,19
2022-07-31T04:07:03.439Z,19
2022-07-31T04:08:03.110Z,19
2022-07-31T04:09:15.359Z,19
2022-07-31T04:10:03.157Z,19
2022-07-31T04:11:03.589Z,19
2022-07-31T04:12:03.934Z,19
2022-07-31T04:13:03.740Z,19
2022-07-31T04:14:03.480Z,19
2022-07-31T04:15:04.122Z,19
2022-07-31T04:16:03.781Z,19
2022-07-31T04:17:03.417Z,19
2022-07-31T04:18:03.189Z,19
2022-07-31T04:19:03.254Z,9
2022-07-31T04:20:03.664Z,28
2022-07-31T04:21:03.181Z,9
2022-07-31T04:22:03.746Z,8
2022-07-31T04:23:02.758Z,14
2022-07-31T04:24:02.789Z,16
2022-07-31T04:25:02.798Z,19
2022-07-31T04:26:03.419Z,15
2022-07-31T04:27:03.884Z,8
2022-07-31T04:28:03.606Z,15
2022-07-31T04:29:03.285Z,13
2022-07-31T04:30:03.794Z,21
2022-07-31T04:31:03.619Z,26
2022-07-31T04:32:04.326Z,16
2022-07-31T04:33:04.024Z,10
2022-07-31T04:34:03.744Z,15
2022-07-31T04:35:03.436Z,14
2022-07-31T04:36:04.082Z,16
2022-07-31T04:37:03.247Z,17
2022-07-31T04:38:02.896Z,17
2022-07-31T04:39:02.907Z,19
2022-07-31T04:40:02.896Z,17
2022-07-31T04:41:03.538Z,18
2022-07-31T04:42:04.368Z,17
2022-07-31T04:43:03.953Z,17
2022-07-31T04:44:03.664Z,13
2022-07-31T04:45:03.371Z,14
2022-07-31T04:46:03.756Z,19
2022-07-31T04:47:04.176Z,12
2022-07-31T04:48:03.670Z,25
2022-07-31T04:49:03.820Z,18
2022-07-31T04:50:03.780Z,15
2022-07-31T04:51:03.574Z,19
2022-07-31T04:52:03.400Z,17
2022-07-31T04:53:03.231Z,18
2022-07-31T04:54:03.610Z,16
2022-07-31T04:55:03.388Z,19
2022-07-31T04:56:03.076Z,18
2022-07-31T04:57:04.319Z,15
2022-07-31T04:58:04.044Z,19
2022-07-31T04:59:04.298Z,19
2022-07-31T05:00:04.101Z,9
2022-07-31T05:01:03.904Z,13
2022-07-31T05:02:03.906Z,4
2022-07-31T05:03:03.547Z,11
2022-07-31T05:04:04.029Z,13
2022-07-31T05:05:03.835Z,16
2022-07-31T05:06:03.507Z,19
2022-07-31T05:07:03.929Z,8
2022-07-31T05:08:03.967Z,16
2022-07-31T05:09:08.588Z,15
2022-07-31T05:10:04.217Z,7
2022-07-31T05:11:03.950Z,8
2022-07-31T05:12:03.740Z,7
2022-07-31T05:13:03.883Z,15
2022-07-31T05:14:03.807Z,13
2022-07-31T05:15:03.483Z,4
2022-07-31T05:16:03.410Z,9
2022-07-31T05:17:03.807Z,15
2022-07-31T05:18:04.217Z,8
2022-07-31T05:19:03.962Z,18
2022-07-31T05:20:04.383Z,18
2022-07-31T05:21:04.080Z,14
2022-07-31T05:22:03.621Z,19
2022-07-31T05:23:06.548Z,19
2022-07-31T05:24:03.566Z,19
2022-07-31T05:25:03.371Z,19
2022-07-31T05:26:03.394Z,19
2022-07-31T05:27:03.887Z,19
2022-07-31T05:28:03.980Z,19
2022-07-31T05:29:04.369Z,19
2022-07-31T05:30:04.082Z,19
2022-07-31T05:31:04.553Z,19
2022-07-31T05:32:03.572Z,19
2022-07-31T05:33:03.594Z,19
2022-07-31T05:34:03.439Z,19
2022-07-31T05:35:03.896Z,19
2022-07-31T05:36:03.368Z,3
2022-07-31T05:37:04.292Z,15
2022-07-31T05:38:04.223Z,10
2022-07-31T05:39:03.934Z,10
2022-07-31T05:40:04.455Z,10
2022-07-31T05:41:04.251Z,8
2022-07-31T05:42:04.008Z,14
2022-07-31T05:43:04.011Z,16
2022-07-31T05:44:04.135Z,13
2022-07-31T05:45:03.811Z,20
2022-07-31T05:46:03.546Z,18
2022-07-31T05:47:04.034Z,19
2022-07-31T05:48:04.358Z,5
2022-07-31T05:49:03.907Z,18
2022-07-31T05:50:04.018Z,14
2022-07-31T05:51:05.781Z,18
2022-07-31T05:52:04.570Z,13
2022-07-31T05:53:04.588Z,11
2022-07-31T05:54:04.335Z,12
2022-07-31T05:55:04.142Z,16
2022-07-31T05:56:04.519Z,10
2022-07-31T05:57:04.295Z,19
2022-07-31T05:58:04.031Z,10
2022-07-31T05:59:04.151Z,14
2022-07-31T06:00:04.585Z,13
2022-07-31T06:01:04.401Z,13
2022-07-31T06:02:04.235Z,23
2022-07-31T06:03:04.182Z,16
2022-07-31T06:04:03.959Z,6
2022-07-31T06:05:03.736Z,10
2022-07-31T06:06:04.239Z,18
2022-07-31T06:07:04.068Z,19
2022-07-31T06:08:03.751Z,17
2022-07-31T06:09:04.940Z,14
2022-07-31T06:10:04.379Z,19
2022-07-31T06:11:04.157Z,19
2022-07-31T06:12:03.546Z,19
2022-07-31T06:13:03.420Z,19
2022-07-31T06:14:03.160Z,18
2022-07-31T06:15:03.709Z,14
2022-07-31T06:16:03.287Z,14
2022-07-31T06:17:03.718Z,16
2022-07-31T06:18:03.492Z,10
2022-07-31T06:19:03.470Z,20
2022-07-31T06:20:03.927Z,20
2022-07-31T06:21:03.554Z,13
2022-07-31T06:22:04.453Z,24
2022-07-31T06:23:04.245Z,12
2022-07-31T06:24:03.968Z,10
2022-07-31T06:25:03.712Z,13
2022-07-31T06:26:04.182Z,14
2022-07-31T06:27:03.463Z,20
2022-07-31T06:28:04.220Z,14
2022-07-31T06:29:03.114Z,15
2022-07-31T06:30:03.499Z,14
2022-07-31T06:31:03.247Z,14
2022-07-31T06:32:03.977Z,20
2022-07-31T06:33:08.388Z,13
2022-07-31T06:34:03.404Z,18
2022-07-31T06:35:03.871Z,20
2022-07-31T06:36:03.666Z,20
2022-07-31T06:37:04.153Z,24
2022-07-31T06:38:03.954Z,24
2022-07-31T06:39:03.777Z,9
2022-07-31T06:40:04.309Z,19
2022-07-31T06:41:03.980Z,24
2022-07-31T06:42:04.902Z,24
2022-07-31T06:43:06.882Z,22
2022-07-31T06:44:04.072Z,23
2022-07-31T06:45:04.612Z,14
2022-07-31T06:46:04.262Z,23
2022-07-31T06:47:03.766Z,22
2022-07-31T06:48:03.674Z,24
2022-07-31T06:49:08.536Z,25
2022-07-31T06:50:03.394Z,28
2022-07-31T06:51:28.287Z,15
2022-07-31T06:52:04.974Z,19
2022-07-31T06:53:03.975Z,19
2022-07-31T06:54:03.793Z,18
2022-07-31T06:55:03.751Z,18
2022-07-31T06:56:03.785Z,18
2022-07-31T06:57:04.319Z,15
2022-07-31T06:58:03.971Z,18
2022-07-31T06:59:04.072Z,16
2022-07-31T07:00:19.968Z,18
2022-07-31T07:01:04.448Z,13
2022-07-31T07:02:04.099Z,14
2022-07-31T07:03:03.281Z,14
2022-07-31T07:04:03.677Z,14
2022-07-31T07:05:06.522Z,14
2022-07-31T07:06:03.064Z,14
2022-07-31T07:07:04.121Z,16
2022-07-31T07:08:03.830Z,11
2022-07-31T07:09:03.642Z,16
2022-07-31T07:10:04.248Z,14
2022-07-31T07:11:03.966Z,15
2022-07-31T07:12:03.608Z,14
2022-07-31T07:13:03.465Z,18
2022-07-31T07:14:03.037Z,19
2022-07-31T07:15:02.909Z,17
2022-07-31T07:16:02.941Z,18
2022-07-31T07:17:03.616Z,19
2022-07-31T07:18:03.516Z,19
2022-07-31T07:19:03.290Z,19
2022-07-31T07:20:03.158Z,19
2022-07-31T07:21:03.650Z,19
2022-07-31T07:22:04.339Z,19
2022-07-31T07:23:04.135Z,19
2022-07-31T07:24:03.896Z,18
2022-07-31T07:25:03.912Z,17
2022-07-31T07:26:03.724Z,18
2022-07-31T07:27:04.236Z,19
2022-07-31T07:28:03.710Z,19
2022-07-31T07:29:04.247Z,18
2022-07-31T07:30:04.084Z,17
2022-07-31T07:31:03.966Z,17
2022-07-31T07:32:04.723Z,13
2022-07-31T07:33:04.404Z,15
2022-07-31T07:34:04.183Z,17
2022-07-31T07:35:03.990Z,17
2022-07-31T07:36:04.481Z,19
2022-07-31T07:37:04.007Z,11
2022-07-31T07:38:03.732Z,13
2022-07-31T07:39:03.876Z,14
2022-07-31T07:40:04.359Z,12
2022-07-31T07:41:03.683Z,13
2022-07-31T07:42:04.583Z,13
2022-07-31T07:43:04.075Z,15
2022-07-31T07:44:03.910Z,18
2022-07-31T07:45:08.303Z,15
2022-07-31T07:46:03.545Z,15
2022-07-31T07:47:03.234Z,14
2022-07-31T07:48:07.166Z,16
2022-07-31T07:49:03.770Z,17
2022-07-31T07:50:03.502Z,17
2022-07-31T07:51:03.904Z,19
2022-07-31T07:52:03.621Z,17
2022-07-31T07:53:03.975Z,15
2022-07-31T07:54:04.060Z,15
2022-07-31T07:55:03.782Z,15
2022-07-31T07:56:03.931Z,14
2022-07-31T07:57:03.660Z,15
2022-07-31T07:58:06.743Z,13
2022-07-31T07:59:03.987Z,12
2022-07-31T08:00:04.188Z,15
2022-07-31T08:01:03.948Z,13
2022-07-31T08:02:03.029Z,13
2022-07-31T08:03:50.974Z,14
2022-07-31T08:04:03.399Z,16
2022-07-31T08:05:02.784Z,13
2022-07-31T08:06:03.134Z,14
2022-07-31T08:07:03.405Z,14
2022-07-31T08:08:02.935Z,15
2022-07-31T08:09:03.366Z,17
2022-07-31T08:10:03.017Z,18
2022-07-31T08:11:03.094Z,16
2022-07-31T08:12:03.921Z,18
2022-07-31T08:13:03.897Z,18
2022-07-31T08:14:03.778Z,15
2022-07-31T08:15:04.183Z,15
2022-07-31T08:16:03.822Z,17
2022-07-31T08:17:03.227Z,18
2022-07-31T08:18:03.379Z,18
2022-07-31T08:19:03.825Z,19
2022-07-31T08:20:03.473Z,16
2022-07-31T08:21:03.790Z,13
2022-07-31T08:22:03.987Z,18
2022-07-31T08:23:03.973Z,19
2022-07-31T08:24:03.633Z,28
2022-07-31T08:25:05.319Z,19
2022-07-31T08:26:04.168Z,23
2022-07-31T08:27:03.331Z,14
2022-07-31T08:28:03.354Z,14
2022-07-31T08:29:05.154Z,-127
2022-07-31T08:30:02.664Z,-127
2022-07-31T08:31:02.757Z,-127
2022-07-31T08:32:02.842Z,-127
2022-07-31T08:33:02.868Z,-127
2022-07-31T08:34:02.872Z,-127
2022-07-31T08:35:03.329Z,-127
2022-07-31T08:36:02.285Z,-127
2022-07-31T08:37:51.816Z,-127
2022-07-31T08:38:04.693Z,-127
2022-07-31T08:39:03.173Z,-127
2022-07-31T08:40:03.338Z,-127
2022-07-31T08:41:03.414Z,-127
2022-07-31T08:42:02.797Z,-127
2022-07-31T08:43:07.335Z,-127
2022-07-31T08:44:04.577Z,-127
2022-07-31T08:45:02.401Z,-127
2022-07-31T08:46:02.436Z,-127
2022-07-31T08:47:03.229Z,-127
2022-07-31T08:48:03.173Z,-127
2022-07-31T08:49:02.968Z,-127
2022-07-31T08:50:03.463Z,-127
2022-07-31T08:51:03.068Z,-127
2022-07-31T08:52:03.248Z,-127
2022-07-31T08:53:03.057Z,-127
2022-07-31T08:54:02.879Z,-127
2022-07-31T08:55:02.938Z,-127
2022-07-31T08:56:02.994Z,-127
2022-07-31T08:57:03.683Z,-127
2022-07-31T08:58:03.044Z,-127
2022-07-31T08:59:03.156Z,-127
2022-07-31T09:00:03.138Z,-127
2022-07-31T09:01:03.321Z,-127
2022-07-31T09:02:03.186Z,-127
2022-07-31T09:03:02.735Z,-127
2022-07-31T09:04:02.609Z,-127
2022-07-31T09:05:03.182Z,-127
2022-07-31T09:06:03.225Z,-127
2022-07-31T09:07:03.271Z,-127
2022-07-31T09:08:03.107Z,-127
2022-07-31T09:09:03.474Z,-127
2022-07-31T09:10:02.992Z,-127
2022-07-31T09:11:03.479Z,-127
2022-07-31T09:12:02.728Z,-127
2022-07-31T09:13:02.317Z,-127
2022-07-31T09:14:03.356Z,-127
2022-07-31T09:15:02.443Z,-127
2022-07-31T09:16:02.502Z,-127
2022-07-31T09:17:03.622Z,-127
2022-07-31T09:18:03.515Z,-127
2022-07-31T09:19:03.371Z,-127
2022-07-31T09:20:03.368Z,-127
2022-07-31T09:21:03.433Z,-127
2022-07-31T09:22:02.218Z,-127
2022-07-31T09:23:02.329Z,-127
2022-07-31T09:24:02.394Z,-127
2022-07-31T09:25:02.514Z,-127
2022-07-31T09:26:02.512Z,-127
2022-07-31T09:27:05.321Z,-127
2022-07-31T09:28:02.853Z,-127
2022-07-31T09:29:02.819Z,-127
2022-07-31T09:30:02.702Z,-127
2022-07-31T09:31:02.968Z,-127
2022-07-31T09:32:02.807Z,-127
2022-07-31T09:33:02.622Z,-127
2022-07-31T09:34:02.633Z,-127
2022-07-31T09:35:03.112Z,-127
2022-07-31T09:36:03.066Z,-127
2022-07-31T09:37:03.733Z,-127
2022-07-31T09:38:04.444Z,29
2022-07-31T09:39:05.289Z,-127
2022-07-31T09:40:03.636Z,31
2022-07-31T09:41:16.577Z,11
2022-07-31T09:42:16.297Z,9
2022-07-31T09:43:03.331Z,10
2022-07-31T09:44:10.614Z,-127
2022-07-31T09:45:03.591Z,48
2022-07-31T09:46:03.340Z,2
2022-07-31T09:47:04.153Z,2
2022-07-31T09:48:03.357Z,-9
2022-07-31T09:49:03.957Z,-127
2022-07-31T09:50:03.308Z,-127
2022-07-31T09:51:03.633Z,-127
2022-07-31T09:52:03.804Z,-127
2022-07-31T09:53:03.542Z,-1
2022-07-31T09:54:03.542Z,-127
2022-07-31T09:55:15.514Z,-17
2022-07-31T09:56:03.501Z,-127
2022-07-31T09:57:04.121Z,-127
2022-07-31T09:58:03.981Z,-6
2022-07-31T09:59:04.188Z,33
2022-07-31T10:00:04.441Z,19
2022-07-31T10:01:04.289Z,48
2022-07-31T10:02:03.947Z,29
2022-07-31T10:03:03.473Z,24
2022-07-31T10:04:04.065Z,22
2022-07-31T10:05:04.046Z,22
2022-07-31T10:06:03.459Z,24
2022-07-31T10:07:04.002Z,25
2022-07-31T10:08:03.690Z,23
2022-07-31T10:09:03.429Z,24
2022-07-31T10:10:03.306Z,24
2022-07-31T10:11:03.722Z,23
2022-07-31T10:12:03.798Z,20
2022-07-31T10:13:03.701Z,25
2022-07-31T10:14:03.491Z,24
2022-07-31T10:15:03.219Z,22
2022-07-31T10:16:03.287Z,18
2022-07-31T10:17:04.964Z,22
2022-07-31T10:18:04.484Z,21
2022-07-31T10:19:03.931Z,24
2022-07-31T10:20:04.368Z,23
2022-07-31T10:21:04.216Z,24
2022-07-31T10:22:03.283Z,21
2022-07-31T10:23:03.570Z,23
2022-07-31T10:24:03.439Z,22
2022-07-31T10:25:03.832Z,22
2022-07-31T10:26:03.939Z,23
2022-07-31T10:27:07.795Z,24
2022-07-31T10:28:04.405Z,24
2022-07-31T10:29:04.160Z,23
2022-07-31T10:30:04.399Z,23
2022-07-31T10:31:04.282Z,18
2022-07-31T10:32:04.095Z,22
2022-07-31T10:33:03.315Z,22
2022-07-31T10:34:03.802Z,26
2022-07-31T10:35:03.749Z,23
2022-07-31T10:36:03.279Z,22
2022-07-31T10:37:04.233Z,46
2022-07-31T10:38:04.184Z,7
2022-07-31T10:39:03.866Z,-16
2022-07-31T10:40:03.681Z,21
2022-07-31T10:41:04.195Z,-10
2022-07-31T10:42:03.897Z,-9
2022-07-31T10:43:04.105Z,12
2022-07-31T10:44:03.909Z,13
2022-07-31T10:45:04.038Z,14
2022-07-31T10:46:03.854Z,15
2022-07-31T10:47:04.456Z,15
2022-07-31T10:48:04.387Z,6
2022-07-31T10:49:08.765Z,20
2022-07-31T10:50:04.179Z,22
2022-07-31T10:51:04.537Z,22
2022-07-31T10:52:04.278Z,41
2022-07-31T10:53:04.667Z,31
2022-07-31T10:54:04.344Z,21
2022-07-31T10:55:04.460Z,25
2022-07-31T10:56:04.329Z,15
2022-07-31T10:57:04.980Z,17
2022-07-31T10:58:04.001Z,19
2022-07-31T10:59:03.738Z,18
2022-07-31T11:00:03.582Z,19
2022-07-31T11:01:03.786Z,16
2022-07-31T11:02:03.881Z,21
2022-07-31T11:03:04.362Z,18
2022-07-31T11:04:04.449Z,21
2022-07-31T11:05:03.998Z,20
2022-07-31T11:06:04.417Z,16
2022-07-31T11:07:04.524Z,16
2022-07-31T11:08:03.607Z,18
2022-07-31T11:09:03.269Z,9
2022-07-31T11:10:03.102Z,17
2022-07-31T11:11:03.851Z,15
2022-07-31T11:12:03.649Z,31
2022-07-31T11:13:03.626Z,20
2022-07-31T11:14:04.169Z,25
2022-07-31T11:15:03.798Z,19
2022-07-31T11:16:03.567Z,17
2022-07-31T11:17:04.254Z,32
2022-07-31T11:18:20.216Z,17
2022-07-31T11:19:03.903Z,18
2022-07-31T11:20:03.740Z,17
2022-07-31T11:21:17.777Z,18
2022-07-31T11:22:31.591Z,16
2022-07-31T11:23:04.227Z,17
2022-07-31T11:24:07.609Z,17
2022-07-31T11:25:03.852Z,17
2022-07-31T11:26:04.292Z,19
2022-07-31T11:27:04.382Z,20
2022-07-31T11:28:04.102Z,19
2022-07-31T11:30:00.318Z,17
2022-07-31T11:30:06.665Z,20
2022-07-31T11:31:04.097Z,20
2022-07-31T11:32:03.838Z,18
2022-07-31T11:33:04.331Z,16
2022-07-31T11:34:04.085Z,19
2022-07-31T11:35:03.752Z,18
2022-07-31T11:36:04.197Z,18
2022-07-31T11:37:05.165Z,19
2022-07-31T11:38:04.416Z,17
2022-07-31T11:39:04.296Z,18
2022-07-31T11:40:03.942Z,23
2022-07-31T11:41:04.462Z,37
2022-07-31T11:42:04.220Z,17
2022-07-31T11:43:25.665Z,12
2022-07-31T11:44:03.791Z,15
2022-07-31T11:45:11.259Z,16
2022-07-31T11:46:04.209Z,1
2022-07-31T11:47:03.937Z,7
2022-07-31T11:48:11.879Z,-4
2022-07-31T11:49:03.646Z,85
2022-07-31T11:50:03.630Z,85
2022-07-31T11:51:03.660Z,85
2022-07-31T11:52:03.288Z,85
2022-07-31T11:53:03.401Z,85
2022-07-31T11:54:03.651Z,85
2022-07-31T11:55:08.509Z,85
2022-07-31T11:56:03.888Z,85
2022-07-31T11:57:04.832Z,-127
2022-07-31T11:58:03.621Z,-127
2022-07-31T11:59:03.676Z,-127
2022-07-31T12:00:03.783Z,-127
2022-07-31T12:01:04.638Z,-127
2022-07-31T12:02:04.046Z,-127
2022-07-31T12:03:02.573Z,-127
2022-07-31T12:04:08.701Z,-127
2022-07-31T12:05:03.421Z,-127
2022-07-31T12:06:02.644Z,-127
2022-07-31T12:07:03.315Z,-127
2022-07-31T12:08:02.735Z,-127
2022-07-31T12:09:02.964Z,-127
2022-07-31T12:10:03.941Z,-127
2022-07-31T12:11:03.070Z,85
2022-07-31T12:12:02.543Z,85
2022-07-31T12:13:01.815Z,-127
2022-07-31T12:14:01.837Z,85
2022-07-31T12:15:01.985Z,85
2022-07-31T12:16:02.198Z,-127
2022-07-31T12:17:02.611Z,-127
2022-07-31T12:18:01.992Z,-127
2022-07-31T12:19:02.753Z,-127
2022-07-31T12:20:02.587Z,-127
2022-07-31T12:21:01.818Z,85
2022-07-31T12:22:02.647Z,-127
2022-07-31T12:23:03.201Z,-127
2022-07-31T12:24:02.919Z,85
2022-07-31T12:25:07.254Z,85
2022-07-31T12:26:02.551Z,85
2022-07-31T12:27:02.998Z,85
2022-07-31T12:28:02.024Z,85
2022-07-31T12:29:02.152Z,85
2022-07-31T12:30:02.375Z,85
2022-07-31T12:31:02.551Z,85
2022-07-31T12:32:02.445Z,85
2022-07-31T12:33:02.360Z,85
2022-07-31T12:34:02.479Z,85
2022-07-31T12:35:02.675Z,85
2022-07-31T12:36:02.757Z,85
2022-07-31T12:37:03.793Z,85
2022-07-31T12:38:24.028Z,-127
2022-07-31T12:39:03.288Z,-127
2022-07-31T12:40:03.614Z,-127
2022-07-31T12:41:04.116Z,13
2022-07-31T12:42:03.771Z,9
2022-07-31T12:43:03.353Z,13
2022-07-31T12:44:03.167Z,14
2022-07-31T12:45:19.435Z,10
2022-07-31T12:46:03.365Z,20
2022-07-31T12:47:03.246Z,14
2022-07-31T12:48:03.073Z,19
2022-07-31T12:49:03.681Z,18
2022-07-31T12:50:03.594Z,20
2022-07-31T12:51:03.257Z,19
2022-07-31T12:52:02.986Z,18
2022-07-31T12:53:03.787Z,20
2022-07-31T12:54:03.927Z,18
2022-07-31T12:55:04.114Z,18
2022-07-31T12:56:03.851Z,18
2022-07-31T12:57:03.865Z,20
2022-07-31T12:58:03.629Z,20
2022-07-31T12:59:04.177Z,15
2022-07-31T13:00:03.960Z,18
2022-07-31T13:01:03.835Z,19
2022-07-31T13:02:03.759Z,17
2022-07-31T13:03:03.647Z,20
2022-07-31T13:04:03.519Z,17
2022-07-31T13:05:03.197Z,15
2022-07-31T13:06:03.680Z,16
2022-07-31T13:07:03.801Z,12
2022-07-31T13:08:02.713Z,16
2022-07-31T13:09:02.553Z,21
2022-07-31T13:10:20.217Z,17
2022-07-31T13:11:02.897Z,17
2022-07-31T13:12:02.678Z,18
2022-07-31T13:13:03.194Z,19
2022-07-31T13:14:03.010Z,19
2022-07-31T13:15:03.195Z,18
2022-07-31T13:16:03.007Z,17
2022-07-31T13:17:03.715Z,15
2022-07-31T13:18:03.559Z,20
2022-07-31T13:19:03.400Z,15
2022-07-31T13:20:03.873Z,18
2022-07-31T13:21:03.551Z,15
2022-07-31T13:22:03.920Z,15
2022-07-31T13:23:03.726Z,17
2022-07-31T13:24:03.371Z,18
2022-07-31T13:25:03.483Z,19
2022-07-31T13:26:03.839Z,18
2022-07-31T13:27:03.946Z,16
2022-07-31T13:28:03.765Z,18
2022-07-31T13:29:04.127Z,17
2022-07-31T13:30:03.959Z,13
2022-07-31T13:31:03.712Z,20
2022-07-31T13:32:04.085Z,18
2022-07-31T13:33:03.621Z,19
2022-07-31T13:34:03.389Z,19
2022-07-31T13:35:24.051Z,19
2022-07-31T13:36:03.776Z,18
2022-07-31T13:37:03.900Z,19
2022-07-31T13:38:03.921Z,18
2022-07-31T13:39:03.706Z,18
2022-07-31T13:40:03.536Z,20
2022-07-31T13:41:04.048Z,18
2022-07-31T13:42:03.881Z,20
2022-07-31T13:43:03.418Z,23
2022-07-31T13:44:03.180Z,22
2022-07-31T13:45:07.982Z,18
2022-07-31T13:46:03.389Z,18
2022-07-31T13:47:03.417Z,16
2022-07-31T13:48:08.484Z,18
2022-07-31T13:49:03.759Z,21
2022-07-31T13:50:04.138Z,17
2022-07-31T13:51:03.906Z,20
2022-07-31T13:52:03.955Z,20
2022-07-31T13:53:03.701Z,20
2022-07-31T13:54:03.595Z,21
2022-07-31T13:55:03.595Z,21
2022-07-31T13:56:03.533Z,19
2022-07-31T13:57:03.299Z,20
2022-07-31T13:58:03.905Z,20
2022-07-31T13:59:03.710Z,21
2022-07-31T14:00:03.408Z,19
2022-07-31T14:01:04.670Z,20
2022-07-31T14:02:05.770Z,19
2022-07-31T14:03:04.160Z,17
2022-07-31T14:04:05.732Z,18
2022-07-31T14:05:04.294Z,19
2022-07-31T14:06:03.717Z,17
2022-07-31T14:07:04.736Z,20
2022-07-31T14:08:30.713Z,15
2022-07-31T14:09:03.570Z,19